sensor_id;sensor_type;location;lat;lon;timestamp;P1;durP1;ratioP1;P2;durP2;ratioP2
70026;SDS011;57506;50.092;15.804;2023-07-20T00:00:27;2.95;;;1.17;;
70026;SDS011;57506;50.092;15.804;2023-07-20T00:03:09;4.03;;;1.43;;
70026;SDS011;57506;50.092;15.804;2023-07-20T00:05:35;2.83;;;1.08;;
70026;SDS011;57506;50.092;15.804;2023-07-20T00:08:01;9.00;;;1.50;;
70026;SDS011;57506;50.092;15.804;2023-07-20T00:10:26;2.42;;;0.80;;
70026;SDS011;57506;50.092;15.804;2023-07-20T00:12:52;2.20;;;0.60;;
70026;SDS011;57506;50.092;15.804;2023-07-20T00:15:17;3.05;;;1.08;;
70026;SDS011;57506;50.092;15.804;2023-07-20T00:17:43;2.50;;;0.70;;
70026;SDS011;57506;50.092;15.804;2023-07-20T00:20:10;2.42;;;0.80;;
70026;SDS011;57506;50.092;15.804;2023-07-20T00:22:36;3.07;;;1.37;;
70026;SDS011;57506;50.092;15.804;2023-07-20T00:25:02;2.50;;;0.50;;
70026;SDS011;57506;50.092;15.804;2023-07-20T00:27:27;2.10;;;0.40;;
70026;SDS011;57506;50.092;15.804;2023-07-20T00:29:53;2.10;;;0.50;;
70026;SDS011;57506;50.092;15.804;2023-07-20T00:32:18;2.00;;;0.40;;
70026;SDS011;57506;50.092;15.804;2023-07-20T00:34:44;2.10;;;0.50;;
70026;SDS011;57506;50.092;15.804;2023-07-20T00:37:09;2.20;;;0.50;;
70026;SDS011;57506;50.092;15.804;2023-07-20T00:39:35;2.07;;;0.40;;
70026;SDS011;57506;50.092;15.804;2023-07-20T00:42:01;1.60;;;0.30;;
70026;SDS011;57506;50.092;15.804;2023-07-20T00:44:26;1.70;;;0.30;;
70026;SDS011;57506;50.092;15.804;2023-07-20T00:46:51;1.90;;;0.40;;
70026;SDS011;57506;50.092;15.804;2023-07-20T00:49:17;2.08;;;0.40;;
70026;SDS011;57506;50.092;15.804;2023-07-20T00:51:46;2.10;;;0.50;;
70026;SDS011;57506;50.092;15.804;2023-07-20T00:54:13;2.03;;;0.45;;
70026;SDS011;57506;50.092;15.804;2023-07-20T00:56:40;2.00;;;0.40;;
70026;SDS011;57506;50.092;15.804;2023-07-20T00:59:05;2.13;;;0.43;;
70026;SDS011;57506;50.092;15.804;2023-07-20T01:01:31;1.88;;;0.40;;
70026;SDS011;57506;50.092;15.804;2023-07-20T01:03:58;2.00;;;0.40;;
70026;SDS011;57506;50.092;15.804;2023-07-20T01:14:08;1.98;;;0.47;;
70026;SDS011;57506;50.092;15.804;2023-07-20T01:16:37;2.10;;;0.40;;
70026;SDS011;57506;50.092;15.804;2023-07-20T01:19:02;2.10;;;0.50;;
70026;SDS011;57506;50.092;15.804;2023-07-20T01:21:31;2.10;;;0.40;;
70026;SDS011;57506;50.092;15.804;2023-07-20T01:24:13;2.20;;;0.50;;
70026;SDS011;57506;50.092;15.804;2023-07-20T01:29:46;2.08;;;0.50;;
70026;SDS011;57506;50.092;15.804;2023-07-20T01:32:24;2.20;;;0.50;;
70026;SDS011;57506;50.092;15.804;2023-07-20T01:34:51;2.00;;;0.40;;
70026;SDS011;57506;50.092;15.804;2023-07-20T01:37:19;2.20;;;0.52;;
70026;SDS011;57506;50.092;15.804;2023-07-20T01:39:46;2.00;;;0.50;;
70026;SDS011;57506;50.092;15.804;2023-07-20T01:42:12;2.00;;;0.60;;
70026;SDS011;57506;50.092;15.804;2023-07-20T01:44:38;3.97;;;1.13;;
70026;SDS011;57506;50.092;15.804;2023-07-20T01:47:04;2.35;;;0.65;;
70026;SDS011;57506;50.092;15.804;2023-07-20T01:49:29;2.03;;;0.60;;
70026;SDS011;57506;50.092;15.804;2023-07-20T01:51:55;2.10;;;0.50;;
70026;SDS011;57506;50.092;15.804;2023-07-20T01:54:20;3.10;;;1.37;;
70026;SDS011;57506;50.092;15.804;2023-07-20T01:56:46;2.00;;;0.40;;
70026;SDS011;57506;50.092;15.804;2023-07-20T01:59:12;7.80;;;2.33;;
70026;SDS011;57506;50.092;15.804;2023-07-20T02:01:37;2.30;;;0.70;;
70026;SDS011;57506;50.092;15.804;2023-07-20T02:04:03;1.90;;;0.30;;
70026;SDS011;57506;50.092;15.804;2023-07-20T02:06:28;2.30;;;0.90;;
70026;SDS011;57506;50.092;15.804;2023-07-20T02:08:54;2.20;;;0.57;;
70026;SDS011;57506;50.092;15.804;2023-07-20T02:11:19;2.40;;;0.80;;
70026;SDS011;57506;50.092;15.804;2023-07-20T02:13:45;2.10;;;0.53;;
70026;SDS011;57506;50.092;15.804;2023-07-20T02:16:10;3.17;;;1.00;;
70026;SDS011;57506;50.092;15.804;2023-07-20T02:18:36;2.17;;;0.43;;
70026;SDS011;57506;50.092;15.804;2023-07-20T02:21:02;2.20;;;0.50;;
70026;SDS011;57506;50.092;15.804;2023-07-20T02:23:27;1.97;;;0.37;;
70026;SDS011;57506;50.092;15.804;2023-07-20T02:25:53;1.80;;;0.30;;
70026;SDS011;57506;50.092;15.804;2023-07-20T02:28:18;1.97;;;0.50;;
70026;SDS011;57506;50.092;15.804;2023-07-20T02:30:44;3.60;;;1.07;;
70026;SDS011;57506;50.092;15.804;2023-07-20T02:33:10;2.10;;;0.50;;
70026;SDS011;57506;50.092;15.804;2023-07-20T02:35:35;2.40;;;0.80;;
70026;SDS011;57506;50.092;15.804;2023-07-20T02:38:01;1.97;;;0.40;;
70026;SDS011;57506;50.092;15.804;2023-07-20T02:40:26;1.85;;;0.30;;
70026;SDS011;57506;50.092;15.804;2023-07-20T02:42:52;2.05;;;0.40;;
70026;SDS011;57506;50.092;15.804;2023-07-20T02:45:18;2.10;;;0.60;;
70026;SDS011;57506;50.092;15.804;2023-07-20T02:47:43;2.10;;;0.40;;
70026;SDS011;57506;50.092;15.804;2023-07-20T02:50:09;2.10;;;0.40;;
70026;SDS011;57506;50.092;15.804;2023-07-20T02:52:34;1.90;;;0.40;;
70026;SDS011;57506;50.092;15.804;2023-07-20T02:55:00;2.10;;;0.40;;
70026;SDS011;57506;50.092;15.804;2023-07-20T02:57:26;2.20;;;0.50;;
70026;SDS011;57506;50.092;15.804;2023-07-20T02:59:52;1.92;;;0.40;;
70026;SDS011;57506;50.092;15.804;2023-07-20T03:02:17;1.80;;;0.40;;
70026;SDS011;57506;50.092;15.804;2023-07-20T03:04:43;2.10;;;0.40;;
70026;SDS011;57506;50.092;15.804;2023-07-20T03:07:08;1.80;;;0.40;;
70026;SDS011;57506;50.092;15.804;2023-07-20T03:09:34;2.00;;;0.50;;
70026;SDS011;57506;50.092;15.804;2023-07-20T03:11:59;1.80;;;0.40;;
70026;SDS011;57506;50.092;15.804;2023-07-20T03:14:26;2.00;;;0.60;;
70026;SDS011;57506;50.092;15.804;2023-07-20T03:16:51;1.90;;;0.40;;
70026;SDS011;57506;50.092;15.804;2023-07-20T03:19:17;2.05;;;0.40;;
70026;SDS011;57506;50.092;15.804;2023-07-20T03:21:42;2.10;;;0.40;;
70026;SDS011;57506;50.092;15.804;2023-07-20T03:24:08;2.00;;;0.40;;
70026;SDS011;57506;50.092;15.804;2023-07-20T03:26:34;2.67;;;1.53;;
70026;SDS011;57506;50.092;15.804;2023-07-20T03:29:00;1.88;;;0.30;;
70026;SDS011;57506;50.092;15.804;2023-07-20T03:31:26;2.00;;;0.35;;
70026;SDS011;57506;50.092;15.804;2023-07-20T03:33:52;2.67;;;1.47;;
70026;SDS011;57506;50.092;15.804;2023-07-20T03:36:17;3.28;;;0.95;;
70026;SDS011;57506;50.092;15.804;2023-07-20T03:38:43;1.80;;;0.30;;
70026;SDS011;57506;50.092;15.804;2023-07-20T03:41:08;1.67;;;0.30;;
70026;SDS011;57506;50.092;15.804;2023-07-20T03:43:37;1.70;;;0.30;;
70026;SDS011;57506;50.092;15.804;2023-07-20T03:46:02;2.10;;;0.47;;
70026;SDS011;57506;50.092;15.804;2023-07-20T03:48:32;1.80;;;0.30;;
70026;SDS011;57506;50.092;15.804;2023-07-20T03:50:57;1.90;;;0.30;;
70026;SDS011;57506;50.092;15.804;2023-07-20T03:53:23;2.07;;;0.47;;
70026;SDS011;57506;50.092;15.804;2023-07-20T03:55:50;2.00;;;0.70;;
70026;SDS011;57506;50.092;15.804;2023-07-20T03:58:16;1.80;;;0.30;;
70026;SDS011;57506;50.092;15.804;2023-07-20T04:00:46;1.80;;;0.30;;
70026;SDS011;57506;50.092;15.804;2023-07-20T04:03:13;1.80;;;0.30;;
70026;SDS011;57506;50.092;15.804;2023-07-20T04:05:39;2.17;;;0.57;;
70026;SDS011;57506;50.092;15.804;2023-07-20T04:08:05;1.90;;;0.33;;
70026;SDS011;57506;50.092;15.804;2023-07-20T04:10:30;2.63;;;0.50;;
70026;SDS011;57506;50.092;15.804;2023-07-20T04:12:56;1.90;;;0.40;;
70026;SDS011;57506;50.092;15.804;2023-07-20T04:15:21;2.17;;;0.57;;
70026;SDS011;57506;50.092;15.804;2023-07-20T04:17:47;2.00;;;0.43;;
70026;SDS011;57506;50.092;15.804;2023-07-20T04:20:12;3.27;;;1.13;;
70026;SDS011;57506;50.092;15.804;2023-07-20T04:22:38;2.33;;;0.82;;
70026;SDS011;57506;50.092;15.804;2023-07-20T04:25:04;2.47;;;0.83;;
70026;SDS011;57506;50.092;15.804;2023-07-20T04:27:30;2.20;;;0.52;;
70026;SDS011;57506;50.092;15.804;2023-07-20T04:29:55;2.13;;;0.63;;
70026;SDS011;57506;50.092;15.804;2023-07-20T04:32:22;5.63;;;1.85;;
70026;SDS011;57506;50.092;15.804;2023-07-20T04:34:48;2.90;;;0.90;;
70026;SDS011;57506;50.092;15.804;2023-07-20T04:37:14;5.60;;;1.20;;
70026;SDS011;57506;50.092;15.804;2023-07-20T04:39:39;2.90;;;1.20;;
70026;SDS011;57506;50.092;15.804;2023-07-20T04:42:05;3.13;;;0.90;;
70026;SDS011;57506;50.092;15.804;2023-07-20T04:44:30;1.38;;;0.30;;
70026;SDS011;57506;50.092;15.804;2023-07-20T04:46:56;1.90;;;0.40;;
70026;SDS011;57506;50.092;15.804;2023-07-20T04:49:21;2.20;;;0.57;;
70026;SDS011;57506;50.092;15.804;2023-07-20T04:51:47;3.00;;;1.20;;
70026;SDS011;57506;50.092;15.804;2023-07-20T04:54:12;4.90;;;1.13;;
70026;SDS011;57506;50.092;15.804;2023-07-20T04:56:38;2.45;;;1.05;;
70026;SDS011;57506;50.092;15.804;2023-07-20T04:59:04;2.37;;;0.80;;
70026;SDS011;57506;50.092;15.804;2023-07-20T05:01:30;3.50;;;1.07;;
70026;SDS011;57506;50.092;15.804;2023-07-20T05:03:55;3.70;;;1.03;;
70026;SDS011;57506;50.092;15.804;2023-07-20T05:06:21;1.90;;;0.50;;
70026;SDS011;57506;50.092;15.804;2023-07-20T05:08:46;4.57;;;1.97;;
70026;SDS011;57506;50.092;15.804;2023-07-20T05:11:12;3.65;;;1.50;;
70026;SDS011;57506;50.092;15.804;2023-07-20T05:13:37;3.77;;;1.43;;
70026;SDS011;57506;50.092;15.804;2023-07-20T05:16:03;3.80;;;1.23;;
70026;SDS011;57506;50.092;15.804;2023-07-20T05:18:29;2.05;;;0.50;;
70026;SDS011;57506;50.092;15.804;2023-07-20T05:20:55;1.70;;;0.40;;
70026;SDS011;57506;50.092;15.804;2023-07-20T05:23:20;2.00;;;0.50;;
70026;SDS011;57506;50.092;15.804;2023-07-20T05:25:47;2.20;;;0.60;;
70026;SDS011;57506;50.092;15.804;2023-07-20T05:28:18;2.30;;;0.80;;
70026;SDS011;57506;50.092;15.804;2023-07-20T05:30:44;6.43;;;1.37;;
70026;SDS011;57506;50.092;15.804;2023-07-20T05:33:09;4.00;;;1.37;;
70026;SDS011;57506;50.092;15.804;2023-07-20T05:35:36;3.50;;;1.67;;
70026;SDS011;57506;50.092;15.804;2023-07-20T05:38:02;3.25;;;1.08;;
70026;SDS011;57506;50.092;15.804;2023-07-20T05:40:29;2.50;;;0.80;;
70026;SDS011;57506;50.092;15.804;2023-07-20T05:42:54;4.43;;;1.63;;
70026;SDS011;57506;50.092;15.804;2023-07-20T05:45:22;2.70;;;1.13;;
70026;SDS011;57506;50.092;15.804;2023-07-20T05:47:47;6.30;;;1.65;;
70026;SDS011;57506;50.092;15.804;2023-07-20T05:50:13;4.18;;;2.17;;
70026;SDS011;57506;50.092;15.804;2023-07-20T05:52:39;2.77;;;1.13;;
70026;SDS011;57506;50.092;15.804;2023-07-20T05:55:05;3.22;;;1.52;;
70026;SDS011;57506;50.092;15.804;2023-07-20T05:57:32;5.93;;;2.70;;
70026;SDS011;57506;50.092;15.804;2023-07-20T05:59:57;7.90;;;2.67;;
70026;SDS011;57506;50.092;15.804;2023-07-20T06:02:23;5.53;;;2.07;;
70026;SDS011;57506;50.092;15.804;2023-07-20T06:04:49;4.73;;;2.13;;
70026;SDS011;57506;50.092;15.804;2023-07-20T06:07:14;3.63;;;1.63;;
70026;SDS011;57506;50.092;15.804;2023-07-20T06:09:40;3.43;;;1.47;;
70026;SDS011;57506;50.092;15.804;2023-07-20T06:12:06;3.77;;;1.27;;
70026;SDS011;57506;50.092;15.804;2023-07-20T06:14:32;3.67;;;1.75;;
70026;SDS011;57506;50.092;15.804;2023-07-20T06:16:57;5.27;;;2.30;;
70026;SDS011;57506;50.092;15.804;2023-07-20T06:19:23;5.13;;;2.57;;
70026;SDS011;57506;50.092;15.804;2023-07-20T06:21:48;5.22;;;3.00;;
70026;SDS011;57506;50.092;15.804;2023-07-20T06:24:17;2.63;;;1.13;;
70026;SDS011;57506;50.092;15.804;2023-07-20T06:26:43;3.70;;;1.47;;
70026;SDS011;57506;50.092;15.804;2023-07-20T06:29:08;4.67;;;2.30;;
70026;SDS011;57506;50.092;15.804;2023-07-20T06:31:34;5.37;;;2.80;;
70026;SDS011;57506;50.092;15.804;2023-07-20T06:34:00;5.53;;;1.80;;
70026;SDS011;57506;50.092;15.804;2023-07-20T06:36:26;4.93;;;2.40;;
70026;SDS011;57506;50.092;15.804;2023-07-20T06:38:52;5.43;;;2.45;;
70026;SDS011;57506;50.092;15.804;2023-07-20T06:41:18;4.65;;;2.13;;
70026;SDS011;57506;50.092;15.804;2023-07-20T06:43:44;7.28;;;2.78;;
70026;SDS011;57506;50.092;15.804;2023-07-20T06:46:10;6.40;;;2.83;;
70026;SDS011;57506;50.092;15.804;2023-07-20T06:48:36;7.65;;;2.42;;
70026;SDS011;57506;50.092;15.804;2023-07-20T06:51:01;3.80;;;1.87;;
70026;SDS011;57506;50.092;15.804;2023-07-20T06:53:28;9.10;;;1.52;;
70026;SDS011;57506;50.092;15.804;2023-07-20T06:55:56;4.25;;;2.22;;
70026;SDS011;57506;50.092;15.804;2023-07-20T06:58:22;3.33;;;1.40;;
70026;SDS011;57506;50.092;15.804;2023-07-20T07:00:48;4.10;;;2.03;;
70026;SDS011;57506;50.092;15.804;2023-07-20T07:03:14;4.43;;;2.22;;
70026;SDS011;57506;50.092;15.804;2023-07-20T07:05:40;4.37;;;2.37;;
70026;SDS011;57506;50.092;15.804;2023-07-20T07:08:06;2.70;;;1.20;;
70026;SDS011;57506;50.092;15.804;2023-07-20T07:10:32;3.95;;;2.13;;
70026;SDS011;57506;50.092;15.804;2023-07-20T07:13:00;4.55;;;2.35;;
70026;SDS011;57506;50.092;15.804;2023-07-20T07:15:26;3.83;;;1.70;;
70026;SDS011;57506;50.092;15.804;2023-07-20T07:17:52;4.63;;;2.40;;
70026;SDS011;57506;50.092;15.804;2023-07-20T07:20:18;2.22;;;0.80;;
70026;SDS011;57506;50.092;15.804;2023-07-20T07:22:44;5.37;;;2.40;;
70026;SDS011;57506;50.092;15.804;2023-07-20T07:25:11;3.27;;;1.67;;
70026;SDS011;57506;50.092;15.804;2023-07-20T07:27:37;3.75;;;1.95;;
70026;SDS011;57506;50.092;15.804;2023-07-20T07:30:06;2.80;;;1.15;;
70026;SDS011;57506;50.092;15.804;2023-07-20T07:32:32;2.95;;;1.35;;
70026;SDS011;57506;50.092;15.804;2023-07-20T07:34:57;3.60;;;1.43;;
70026;SDS011;57506;50.092;15.804;2023-07-20T07:37:23;2.30;;;0.90;;
70026;SDS011;57506;50.092;15.804;2023-07-20T07:39:49;4.50;;;2.08;;
70026;SDS011;57506;50.092;15.804;2023-07-20T07:42:15;3.20;;;1.40;;
70026;SDS011;57506;50.092;15.804;2023-07-20T07:44:46;3.95;;;1.77;;
70026;SDS011;57506;50.092;15.804;2023-07-20T07:47:12;4.60;;;1.77;;
70026;SDS011;57506;50.092;15.804;2023-07-20T07:49:37;3.30;;;1.73;;
70026;SDS011;57506;50.092;15.804;2023-07-20T07:52:03;3.70;;;1.83;;
70026;SDS011;57506;50.092;15.804;2023-07-20T07:54:29;3.65;;;1.95;;
70026;SDS011;57506;50.092;15.804;2023-07-20T07:56:55;5.73;;;2.30;;
70026;SDS011;57506;50.092;15.804;2023-07-20T07:59:21;4.20;;;2.15;;
70026;SDS011;57506;50.092;15.804;2023-07-20T08:01:47;4.43;;;2.35;;
70026;SDS011;57506;50.092;15.804;2023-07-20T08:04:13;6.07;;;2.40;;
70026;SDS011;57506;50.092;15.804;2023-07-20T08:06:39;3.88;;;2.33;;
70026;SDS011;57506;50.092;15.804;2023-07-20T08:09:05;2.70;;;1.15;;
70026;SDS011;57506;50.092;15.804;2023-07-20T08:11:31;7.47;;;2.30;;
70026;SDS011;57506;50.092;15.804;2023-07-20T08:14:01;2.23;;;0.80;;
70026;SDS011;57506;50.092;15.804;2023-07-20T08:16:27;5.22;;;2.22;;
70026;SDS011;57506;50.092;15.804;2023-07-20T08:18:52;3.65;;;1.92;;
70026;SDS011;57506;50.092;15.804;2023-07-20T08:21:18;4.70;;;2.03;;
70026;SDS011;57506;50.092;15.804;2023-07-20T08:23:44;3.67;;;2.17;;
70026;SDS011;57506;50.092;15.804;2023-07-20T08:26:10;3.13;;;1.55;;
70026;SDS011;57506;50.092;15.804;2023-07-20T08:28:36;3.97;;;1.50;;
70026;SDS011;57506;50.092;15.804;2023-07-20T08:31:02;3.08;;;1.50;;
70026;SDS011;57506;50.092;15.804;2023-07-20T08:33:30;3.73;;;1.40;;
70026;SDS011;57506;50.092;15.804;2023-07-20T08:35:58;3.42;;;1.23;;
70026;SDS011;57506;50.092;15.804;2023-07-20T08:38:24;3.72;;;1.40;;
70026;SDS011;57506;50.092;15.804;2023-07-20T08:40:49;3.60;;;1.97;;
70026;SDS011;57506;50.092;15.804;2023-07-20T08:43:18;2.65;;;1.08;;
70026;SDS011;57506;50.092;15.804;2023-07-20T08:45:45;4.65;;;1.30;;
70026;SDS011;57506;50.092;15.804;2023-07-20T08:48:11;3.13;;;1.35;;
70026;SDS011;57506;50.092;15.804;2023-07-20T08:50:38;3.70;;;1.53;;
70026;SDS011;57506;50.092;15.804;2023-07-20T08:53:04;2.83;;;1.17;;
70026;SDS011;57506;50.092;15.804;2023-07-20T08:55:31;2.40;;;0.90;;
70026;SDS011;57506;50.092;15.804;2023-07-20T08:57:57;3.15;;;1.42;;
70026;SDS011;57506;50.092;15.804;2023-07-20T09:00:25;4.00;;;1.70;;
70026;SDS011;57506;50.092;15.804;2023-07-20T09:02:55;3.83;;;1.85;;
70026;SDS011;57506;50.092;15.804;2023-07-20T09:05:22;2.53;;;1.13;;
70026;SDS011;57506;50.092;15.804;2023-07-20T09:07:50;3.28;;;1.63;;
70026;SDS011;57506;50.092;15.804;2023-07-20T09:10:19;4.60;;;1.95;;
70026;SDS011;57506;50.092;15.804;2023-07-20T09:12:49;3.70;;;1.40;;
70026;SDS011;57506;50.092;15.804;2023-07-20T09:15:15;4.03;;;1.50;;
70026;SDS011;57506;50.092;15.804;2023-07-20T09:17:48;4.15;;;1.70;;
70026;SDS011;57506;50.092;15.804;2023-07-20T09:20:16;3.47;;;2.00;;
70026;SDS011;57506;50.092;15.804;2023-07-20T09:22:43;4.10;;;1.90;;
70026;SDS011;57506;50.092;15.804;2023-07-20T09:25:12;4.20;;;1.97;;
70026;SDS011;57506;50.092;15.804;2023-07-20T09:27:40;3.13;;;1.23;;
70026;SDS011;57506;50.092;15.804;2023-07-20T09:30:07;3.83;;;1.80;;
70026;SDS011;57506;50.092;15.804;2023-07-20T09:32:40;2.95;;;1.20;;
70026;SDS011;57506;50.092;15.804;2023-07-20T09:35:18;3.50;;;1.80;;
70026;SDS011;57506;50.092;15.804;2023-07-20T09:37:49;11.50;;;1.98;;
70026;SDS011;57506;50.092;15.804;2023-07-20T09:40:19;4.72;;;1.45;;
70026;SDS011;57506;50.092;15.804;2023-07-20T09:42:45;3.85;;;1.48;;
70026;SDS011;57506;50.092;15.804;2023-07-20T09:45:11;3.95;;;1.50;;
70026;SDS011;57506;50.092;15.804;2023-07-20T09:47:37;5.27;;;1.27;;
70026;SDS011;57506;50.092;15.804;2023-07-20T09:50:04;3.15;;;1.60;;
70026;SDS011;57506;50.092;15.804;2023-07-20T09:52:35;3.03;;;1.20;;
70026;SDS011;57506;50.092;15.804;2023-07-20T09:55:07;5.22;;;1.50;;
70026;SDS011;57506;50.092;15.804;2023-07-20T09:57:34;2.77;;;1.00;;
70026;SDS011;57506;50.092;15.804;2023-07-20T10:00:01;3.60;;;1.80;;
70026;SDS011;57506;50.092;15.804;2023-07-20T10:02:42;4.15;;;1.70;;
70026;SDS011;57506;50.092;15.804;2023-07-20T10:05:10;3.65;;;2.08;;
70026;SDS011;57506;50.092;15.804;2023-07-20T10:07:43;3.83;;;1.67;;
70026;SDS011;57506;50.092;15.804;2023-07-20T10:10:11;7.83;;;2.07;;
70026;SDS011;57506;50.092;15.804;2023-07-20T10:12:39;4.15;;;1.90;;
70026;SDS011;57506;50.092;15.804;2023-07-20T10:15:50;3.22;;;1.60;;
70026;SDS011;57506;50.092;15.804;2023-07-20T10:18:09;3.00;;;1.60;;
70026;SDS011;57506;50.092;15.804;2023-07-20T10:20:42;2.70;;;1.17;;
70026;SDS011;57506;50.092;15.804;2023-07-20T10:23:09;3.33;;;1.63;;
70026;SDS011;57506;50.092;15.804;2023-07-20T10:25:36;6.20;;;1.25;;
70026;SDS011;57506;50.092;15.804;2023-07-20T10:28:06;6.30;;;1.70;;
70026;SDS011;57506;50.092;15.804;2023-07-20T10:30:35;3.38;;;1.90;;
70026;SDS011;57506;50.092;15.804;2023-07-20T10:33:05;3.83;;;2.00;;
70026;SDS011;57506;50.092;15.804;2023-07-20T10:35:50;4.80;;;2.00;;
70026;SDS011;57506;50.092;15.804;2023-07-20T10:38:19;4.68;;;1.83;;
70026;SDS011;57506;50.092;15.804;2023-07-20T10:40:54;3.80;;;1.80;;
70026;SDS011;57506;50.092;15.804;2023-07-20T10:43:21;3.47;;;1.80;;
70026;SDS011;57506;50.092;15.804;2023-07-20T10:45:53;3.43;;;1.73;;
70026;SDS011;57506;50.092;15.804;2023-07-20T10:50:45;3.30;;;1.30;;
70026;SDS011;57506;50.092;15.804;2023-07-20T10:53:16;3.60;;;1.40;;
70026;SDS011;57506;50.092;15.804;2023-07-20T10:55:43;5.55;;;2.17;;
70026;SDS011;57506;50.092;15.804;2023-07-20T10:58:12;3.53;;;1.75;;
70026;SDS011;57506;50.092;15.804;2023-07-20T11:03:31;3.45;;;1.55;;
70026;SDS011;57506;50.092;15.804;2023-07-20T11:05:58;4.10;;;1.30;;
70026;SDS011;57506;50.092;15.804;2023-07-20T11:08:42;4.00;;;1.48;;
70026;SDS011;57506;50.092;15.804;2023-07-20T11:11:25;2.33;;;0.82;;
70026;SDS011;57506;50.092;15.804;2023-07-20T11:16:35;3.90;;;1.70;;
70026;SDS011;57506;50.092;15.804;2023-07-20T11:19:21;4.05;;;1.40;;
70026;SDS011;57506;50.092;15.804;2023-07-20T11:21:51;3.45;;;1.35;;
70026;SDS011;57506;50.092;15.804;2023-07-20T11:24:22;2.83;;;1.00;;
70026;SDS011;57506;50.092;15.804;2023-07-20T11:26:49;3.17;;;1.50;;
70026;SDS011;57506;50.092;15.804;2023-07-20T11:29:17;3.07;;;1.23;;
70026;SDS011;57506;50.092;15.804;2023-07-20T11:31:45;5.38;;;1.60;;
70026;SDS011;57506;50.092;15.804;2023-07-20T11:36:42;3.00;;;1.25;;
70026;SDS011;57506;50.092;15.804;2023-07-20T11:39:09;4.55;;;1.48;;
70026;SDS011;57506;50.092;15.804;2023-07-20T11:41:36;4.07;;;1.10;;
70026;SDS011;57506;50.092;15.804;2023-07-20T11:44:03;3.22;;;1.40;;
70026;SDS011;57506;50.092;15.804;2023-07-20T11:46:31;3.03;;;1.00;;
70026;SDS011;57506;50.092;15.804;2023-07-20T11:49:00;3.20;;;1.00;;
70026;SDS011;57506;50.092;15.804;2023-07-20T11:51:28;3.08;;;1.42;;
70026;SDS011;57506;50.092;15.804;2023-07-20T11:53:54;2.50;;;0.77;;
70026;SDS011;57506;50.092;15.804;2023-07-20T11:56:24;2.90;;;1.15;;
70026;SDS011;57506;50.092;15.804;2023-07-20T11:58:54;3.42;;;1.48;;
70026;SDS011;57506;50.092;15.804;2023-07-20T12:01:21;2.70;;;1.15;;
70026;SDS011;57506;50.092;15.804;2023-07-20T12:03:48;3.53;;;1.48;;
70026;SDS011;57506;50.092;15.804;2023-07-20T12:06:15;2.57;;;1.00;;
70026;SDS011;57506;50.092;15.804;2023-07-20T12:08:41;3.15;;;1.15;;
70026;SDS011;57506;50.092;15.804;2023-07-20T12:11:08;2.60;;;0.88;;
70026;SDS011;57506;50.092;15.804;2023-07-20T12:13:37;9.35;;;0.90;;
70026;SDS011;57506;50.092;15.804;2023-07-20T12:16:11;3.42;;;1.40;;
70026;SDS011;57506;50.092;15.804;2023-07-20T12:18:42;3.30;;;1.10;;
70026;SDS011;57506;50.092;15.804;2023-07-20T12:21:09;2.72;;;1.23;;
70026;SDS011;57506;50.092;15.804;2023-07-20T12:23:37;3.33;;;1.27;;
70026;SDS011;57506;50.092;15.804;2023-07-20T12:26:08;3.20;;;1.27;;
70026;SDS011;57506;50.092;15.804;2023-07-20T12:28:40;3.03;;;1.60;;
70026;SDS011;57506;50.092;15.804;2023-07-20T12:31:07;2.43;;;0.83;;
70026;SDS011;57506;50.092;15.804;2023-07-20T12:33:34;4.25;;;1.52;;
70026;SDS011;57506;50.092;15.804;2023-07-20T12:36:00;4.22;;;1.20;;
70026;SDS011;57506;50.092;15.804;2023-07-20T12:38:26;2.72;;;1.20;;
70026;SDS011;57506;50.092;15.804;2023-07-20T12:40:53;3.40;;;1.80;;
70026;SDS011;57506;50.092;15.804;2023-07-20T12:43:23;2.88;;;1.17;;
70026;SDS011;57506;50.092;15.804;2023-07-20T12:45:49;4.72;;;1.85;;
70026;SDS011;57506;50.092;15.804;2023-07-20T12:48:15;3.40;;;1.60;;
70026;SDS011;57506;50.092;15.804;2023-07-20T12:50:41;3.30;;;1.60;;
70026;SDS011;57506;50.092;15.804;2023-07-20T12:53:07;3.80;;;1.73;;
70026;SDS011;57506;50.092;15.804;2023-07-20T12:55:33;3.47;;;1.52;;
70026;SDS011;57506;50.092;15.804;2023-07-20T12:57:59;3.20;;;1.67;;
70026;SDS011;57506;50.092;15.804;2023-07-20T13:00:25;3.40;;;1.75;;
70026;SDS011;57506;50.092;15.804;2023-07-20T13:02:51;3.25;;;1.20;;
70026;SDS011;57506;50.092;15.804;2023-07-20T13:05:17;2.80;;;1.40;;
70026;SDS011;57506;50.092;15.804;2023-07-20T13:07:43;2.63;;;1.10;;
70026;SDS011;57506;50.092;15.804;2023-07-20T13:10:09;3.35;;;1.80;;
70026;SDS011;57506;50.092;15.804;2023-07-20T13:12:36;2.43;;;0.93;;
70026;SDS011;57506;50.092;15.804;2023-07-20T13:15:03;4.35;;;1.75;;
70026;SDS011;57506;50.092;15.804;2023-07-20T13:17:37;3.88;;;1.65;;
70026;SDS011;57506;50.092;15.804;2023-07-20T13:20:07;2.90;;;1.30;;
70026;SDS011;57506;50.092;15.804;2023-07-20T13:22:36;2.80;;;1.30;;
70026;SDS011;57506;50.092;15.804;2023-07-20T13:25:06;3.23;;;1.47;;
70026;SDS011;57506;50.092;15.804;2023-07-20T13:27:33;3.20;;;1.73;;
70026;SDS011;57506;50.092;15.804;2023-07-20T13:30:02;3.20;;;1.70;;
70026;SDS011;57506;50.092;15.804;2023-07-20T13:32:31;2.90;;;1.33;;
70026;SDS011;57506;50.092;15.804;2023-07-20T13:34:58;3.22;;;1.40;;
70026;SDS011;57506;50.092;15.804;2023-07-20T13:37:23;4.00;;;1.80;;
70026;SDS011;57506;50.092;15.804;2023-07-20T13:39:49;3.40;;;1.60;;
70026;SDS011;57506;50.092;15.804;2023-07-20T13:42:15;3.27;;;1.57;;
70026;SDS011;57506;50.092;15.804;2023-07-20T13:44:41;2.90;;;1.33;;
70026;SDS011;57506;50.092;15.804;2023-07-20T13:47:07;2.73;;;1.03;;
70026;SDS011;57506;50.092;15.804;2023-07-20T13:49:32;3.83;;;1.45;;
70026;SDS011;57506;50.092;15.804;2023-07-20T13:51:59;3.15;;;1.63;;
70026;SDS011;57506;50.092;15.804;2023-07-20T13:54:25;3.70;;;1.63;;
70026;SDS011;57506;50.092;15.804;2023-07-20T13:56:50;11.90;;;1.73;;
70026;SDS011;57506;50.092;15.804;2023-07-20T13:59:17;5.93;;;2.00;;
70026;SDS011;57506;50.092;15.804;2023-07-20T14:01:43;4.20;;;1.65;;
70026;SDS011;57506;50.092;15.804;2023-07-20T14:04:08;3.17;;;1.50;;
70026;SDS011;57506;50.092;15.804;2023-07-20T14:06:34;2.60;;;1.20;;
70026;SDS011;57506;50.092;15.804;2023-07-20T14:09:00;2.60;;;0.95;;
70026;SDS011;57506;50.092;15.804;2023-07-20T14:11:27;4.47;;;1.90;;
70026;SDS011;57506;50.092;15.804;2023-07-20T14:13:53;3.00;;;1.33;;
70026;SDS011;57506;50.092;15.804;2023-07-20T14:16:19;3.53;;;1.75;;
70026;SDS011;57506;50.092;15.804;2023-07-20T14:18:45;3.05;;;1.48;;
70026;SDS011;57506;50.092;15.804;2023-07-20T14:21:17;3.05;;;1.75;;
70026;SDS011;57506;50.092;15.804;2023-07-20T14:23:45;3.22;;;1.50;;
70026;SDS011;57506;50.092;15.804;2023-07-20T14:26:11;3.60;;;1.60;;
70026;SDS011;57506;50.092;15.804;2023-07-20T14:28:38;2.92;;;1.13;;
70026;SDS011;57506;50.092;15.804;2023-07-20T14:31:04;3.40;;;2.03;;
70026;SDS011;57506;50.092;15.804;2023-07-20T14:33:30;2.90;;;1.55;;
70026;SDS011;57506;50.092;15.804;2023-07-20T14:35:56;3.70;;;1.60;;
70026;SDS011;57506;50.092;15.804;2023-07-20T14:38:22;3.58;;;1.90;;
70026;SDS011;57506;50.092;15.804;2023-07-20T14:40:48;5.30;;;1.85;;
70026;SDS011;57506;50.092;15.804;2023-07-20T14:43:14;2.67;;;1.20;;
70026;SDS011;57506;50.092;15.804;2023-07-20T14:45:40;2.93;;;1.43;;
70026;SDS011;57506;50.092;15.804;2023-07-20T14:48:06;2.80;;;1.40;;
70026;SDS011;57506;50.092;15.804;2023-07-20T14:50:33;3.03;;;1.67;;
70026;SDS011;57506;50.092;15.804;2023-07-20T14:52:59;3.03;;;1.80;;